sensor_id;sensor_type;location;lat;lon;timestamp;P1;durP1;ratioP1;P2;durP2;ratioP2
26574;SDS011;67165;50.256;10.978;2024-03-06T00:02:23;49.40;;;24.23;;
26574;SDS011;67165;50.256;10.978;2024-03-06T00:04:49;43.33;;;21.88;;
26574;SDS011;67165;50.256;10.978;2024-03-06T00:07:15;49.47;;;23.50;;
26574;SDS011;67165;50.256;10.978;2024-03-06T00:09:41;40.28;;;20.55;;
26574;SDS011;67165;50.256;10.978;2024-03-06T00:12:06;45.83;;;22.60;;
26574;SDS011;67165;50.256;10.978;2024-03-06T00:14:32;40.53;;;20.70;;
26574;SDS011;67165;50.256;10.978;2024-03-06T00:17:01;41.35;;;21.05;;
26574;SDS011;67165;50.256;10.978;2024-03-06T00:19:29;41.00;;;21.08;;
26574;SDS011;67165;50.256;10.978;2024-03-06T00:21:55;40.22;;;20.38;;
26574;SDS011;67165;50.256;10.978;2024-03-06T00:24:21;48.97;;;23.27;;
26574;SDS011;67165;50.256;10.978;2024-03-06T00:26:48;50.13;;;23.33;;
26574;SDS011;67165;50.256;10.978;2024-03-06T00:29:14;45.13;;;23.63;;
26574;SDS011;67165;50.256;10.978;2024-03-06T00:31:43;45.40;;;22.67;;
26574;SDS011;67165;50.256;10.978;2024-03-06T00:34:12;40.42;;;21.15;;
26574;SDS011;67165;50.256;10.978;2024-03-06T00:36:44;38.83;;;20.98;;
26574;SDS011;67165;50.256;10.978;2024-03-06T00:39:10;42.47;;;21.00;;
26574;SDS011;67165;50.256;10.978;2024-03-06T00:41:39;41.28;;;20.85;;
26574;SDS011;67165;50.256;10.978;2024-03-06T00:44:05;43.20;;;19.85;;
26574;SDS011;67165;50.256;10.978;2024-03-06T00:46:31;40.05;;;19.92;;
26574;SDS011;67165;50.256;10.978;2024-03-06T00:48:56;41.50;;;21.08;;
26574;SDS011;67165;50.256;10.978;2024-03-06T00:51:22;38.40;;;18.73;;
26574;SDS011;67165;50.256;10.978;2024-03-06T00:53:48;44.03;;;22.10;;
26574;SDS011;67165;50.256;10.978;2024-03-06T00:56:14;38.05;;;19.52;;
26574;SDS011;67165;50.256;10.978;2024-03-06T00:58:40;37.83;;;19.60;;
26574;SDS011;67165;50.256;10.978;2024-03-06T01:01:05;41.80;;;19.77;;
26574;SDS011;67165;50.256;10.978;2024-03-06T01:03:31;40.17;;;18.73;;
26574;SDS011;67165;50.256;10.978;2024-03-06T01:05:57;38.25;;;19.23;;
26574;SDS011;67165;50.256;10.978;2024-03-06T01:08:23;36.25;;;18.10;;
26574;SDS011;67165;50.256;10.978;2024-03-06T01:10:52;38.72;;;18.98;;
26574;SDS011;67165;50.256;10.978;2024-03-06T01:13:19;36.15;;;18.52;;
26574;SDS011;67165;50.256;10.978;2024-03-06T01:15:45;38.13;;;19.33;;
26574;SDS011;67165;50.256;10.978;2024-03-06T01:18:11;39.95;;;18.75;;
26574;SDS011;67165;50.256;10.978;2024-03-06T01:20:37;33.50;;;18.35;;
26574;SDS011;67165;50.256;10.978;2024-03-06T01:23:03;37.85;;;18.27;;
26574;SDS011;67165;50.256;10.978;2024-03-06T01:25:29;42.28;;;20.77;;
26574;SDS011;67165;50.256;10.978;2024-03-06T01:27:54;36.50;;;19.38;;
26574;SDS011;67165;50.256;10.978;2024-03-06T01:30:20;39.75;;;19.77;;
26574;SDS011;67165;50.256;10.978;2024-03-06T01:32:46;41.08;;;20.42;;
26574;SDS011;67165;50.256;10.978;2024-03-06T01:35:12;40.50;;;20.15;;
26574;SDS011;67165;50.256;10.978;2024-03-06T01:37:37;35.83;;;18.77;;
26574;SDS011;67165;50.256;10.978;2024-03-06T01:40:03;39.75;;;20.05;;
26574;SDS011;67165;50.256;10.978;2024-03-06T01:42:30;38.15;;;19.05;;
26574;SDS011;67165;50.256;10.978;2024-03-06T01:44:56;38.28;;;19.50;;
26574;SDS011;67165;50.256;10.978;2024-03-06T01:47:22;37.65;;;18.83;;
26574;SDS011;67165;50.256;10.978;2024-03-06T01:49:48;34.47;;;18.40;;
26574;SDS011;67165;50.256;10.978;2024-03-06T01:52:14;38.33;;;19.08;;
26574;SDS011;67165;50.256;10.978;2024-03-06T01:54:42;39.60;;;19.42;;
26574;SDS011;67165;50.256;10.978;2024-03-06T01:57:09;42.13;;;21.35;;
26574;SDS011;67165;50.256;10.978;2024-03-06T01:59:39;41.97;;;21.10;;
26574;SDS011;67165;50.256;10.978;2024-03-06T02:02:06;39.15;;;19.55;;
26574;SDS011;67165;50.256;10.978;2024-03-06T02:04:33;38.20;;;19.23;;
26574;SDS011;67165;50.256;10.978;2024-03-06T02:06:59;39.17;;;19.30;;
26574;SDS011;67165;50.256;10.978;2024-03-06T02:09:25;39.70;;;18.73;;
26574;SDS011;67165;50.256;10.978;2024-03-06T02:11:51;38.17;;;19.48;;
26574;SDS011;67165;50.256;10.978;2024-03-06T02:14:17;43.45;;;19.95;;
26574;SDS011;67165;50.256;10.978;2024-03-06T02:16:43;38.03;;;18.30;;
26574;SDS011;67165;50.256;10.978;2024-03-06T02:19:09;39.35;;;19.08;;
26574;SDS011;67165;50.256;10.978;2024-03-06T02:21:34;35.50;;;17.33;;
26574;SDS011;67165;50.256;10.978;2024-03-06T02:24:00;39.25;;;18.77;;
26574;SDS011;67165;50.256;10.978;2024-03-06T02:26:26;39.20;;;18.85;;
26574;SDS011;67165;50.256;10.978;2024-03-06T02:28:53;38.17;;;19.13;;
26574;SDS011;67165;50.256;10.978;2024-03-06T02:31:20;34.05;;;17.08;;
26574;SDS011;67165;50.256;10.978;2024-03-06T02:33:47;36.40;;;19.33;;
26574;SDS011;67165;50.256;10.978;2024-03-06T02:36:13;38.72;;;17.45;;
26574;SDS011;67165;50.256;10.978;2024-03-06T02:38:40;36.08;;;17.67;;
26574;SDS011;67165;50.256;10.978;2024-03-06T02:41:05;38.70;;;18.15;;
26574;SDS011;67165;50.256;10.978;2024-03-06T02:43:35;36.45;;;17.80;;
26574;SDS011;67165;50.256;10.978;2024-03-06T02:46:01;39.75;;;18.30;;
26574;SDS011;67165;50.256;10.978;2024-03-06T02:48:27;36.88;;;17.90;;
26574;SDS011;67165;50.256;10.978;2024-03-06T02:50:53;34.03;;;17.63;;
26574;SDS011;67165;50.256;10.978;2024-03-06T02:53:19;43.10;;;19.55;;
26574;SDS011;67165;50.256;10.978;2024-03-06T02:55:45;36.03;;;17.98;;
26574;SDS011;67165;50.256;10.978;2024-03-06T02:58:11;36.25;;;17.45;;
26574;SDS011;67165;50.256;10.978;2024-03-06T03:00:39;38.97;;;18.10;;
26574;SDS011;67165;50.256;10.978;2024-03-06T03:03:06;43.92;;;18.55;;
26574;SDS011;67165;50.256;10.978;2024-03-06T03:05:31;39.95;;;18.70;;
26574;SDS011;67165;50.256;10.978;2024-03-06T03:07:58;41.55;;;21.02;;
26574;SDS011;67165;50.256;10.978;2024-03-06T03:10:24;43.60;;;21.08;;
26574;SDS011;67165;50.256;10.978;2024-03-06T03:12:50;44.10;;;20.23;;
26574;SDS011;67165;50.256;10.978;2024-03-06T03:15:17;40.40;;;18.38;;
26574;SDS011;67165;50.256;10.978;2024-03-06T03:17:42;39.10;;;19.23;;
26574;SDS011;67165;50.256;10.978;2024-03-06T03:20:08;41.90;;;19.65;;
26574;SDS011;67165;50.256;10.978;2024-03-06T03:22:38;39.60;;;19.45;;
26574;SDS011;67165;50.256;10.978;2024-03-06T03:25:08;43.88;;;19.33;;
26574;SDS011;67165;50.256;10.978;2024-03-06T03:27:37;39.97;;;18.63;;
26574;SDS011;67165;50.256;10.978;2024-03-06T03:30:09;38.90;;;18.20;;
26574;SDS011;67165;50.256;10.978;2024-03-06T03:32:36;40.55;;;18.45;;
26574;SDS011;67165;50.256;10.978;2024-03-06T03:35:05;41.35;;;19.20;;
26574;SDS011;67165;50.256;10.978;2024-03-06T03:37:31;43.10;;;19.65;;
26574;SDS011;67165;50.256;10.978;2024-03-06T03:39:58;39.45;;;18.02;;
26574;SDS011;67165;50.256;10.978;2024-03-06T03:42:23;46.22;;;20.13;;
26574;SDS011;67165;50.256;10.978;2024-03-06T03:44:49;40.53;;;18.98;;
26574;SDS011;67165;50.256;10.978;2024-03-06T03:47:15;49.25;;;21.38;;
26574;SDS011;67165;50.256;10.978;2024-03-06T03:49:41;44.65;;;20.15;;
26574;SDS011;67165;50.256;10.978;2024-03-06T03:52:07;47.13;;;22.42;;
26574;SDS011;67165;50.256;10.978;2024-03-06T03:54:33;51.22;;;25.65;;
26574;SDS011;67165;50.256;10.978;2024-03-06T03:57:00;52.03;;;26.70;;
26574;SDS011;67165;50.256;10.978;2024-03-06T03:59:26;52.78;;;26.63;;
26574;SDS011;67165;50.256;10.978;2024-03-06T04:01:51;49.80;;;25.77;;
26574;SDS011;67165;50.256;10.978;2024-03-06T04:04:17;48.63;;;26.08;;
26574;SDS011;67165;50.256;10.978;2024-03-06T04:06:43;45.45;;;25.52;;
26574;SDS011;67165;50.256;10.978;2024-03-06T04:09:09;41.80;;;24.83;;
26574;SDS011;67165;50.256;10.978;2024-03-06T04:11:36;45.42;;;25.85;;
26574;SDS011;67165;50.256;10.978;2024-03-06T04:14:03;43.45;;;25.15;;
26574;SDS011;67165;50.256;10.978;2024-03-06T04:16:29;41.65;;;24.52;;
26574;SDS011;67165;50.256;10.978;2024-03-06T04:18:55;43.03;;;23.63;;
26574;SDS011;67165;50.256;10.978;2024-03-06T04:21:20;38.90;;;22.73;;
26574;SDS011;67165;50.256;10.978;2024-03-06T04:23:47;42.22;;;24.77;;
26574;SDS011;67165;50.256;10.978;2024-03-06T04:26:13;42.78;;;23.85;;
26574;SDS011;67165;50.256;10.978;2024-03-06T04:28:39;42.30;;;25.02;;
26574;SDS011;67165;50.256;10.978;2024-03-06T04:31:05;42.00;;;25.92;;
26574;SDS011;67165;50.256;10.978;2024-03-06T04:33:31;42.20;;;25.35;;
26574;SDS011;67165;50.256;10.978;2024-03-06T04:35:57;42.30;;;25.40;;
26574;SDS011;67165;50.256;10.978;2024-03-06T04:38:23;42.95;;;25.85;;
26574;SDS011;67165;50.256;10.978;2024-03-06T04:40:49;41.10;;;24.63;;
26574;SDS011;67165;50.256;10.978;2024-03-06T04:43:14;40.25;;;25.20;;
26574;SDS011;67165;50.256;10.978;2024-03-06T04:45:40;41.15;;;24.35;;
26574;SDS011;67165;50.256;10.978;2024-03-06T04:48:07;40.63;;;24.17;;
26574;SDS011;67165;50.256;10.978;2024-03-06T04:50:33;39.60;;;24.17;;
26574;SDS011;67165;50.256;10.978;2024-03-06T04:52:58;40.15;;;25.42;;
26574;SDS011;67165;50.256;10.978;2024-03-06T04:55:24;38.28;;;24.02;;
26574;SDS011;67165;50.256;10.978;2024-03-06T04:57:51;41.38;;;25.08;;
26574;SDS011;67165;50.256;10.978;2024-03-06T05:00:18;40.67;;;24.35;;
26574;SDS011;67165;50.256;10.978;2024-03-06T05:02:43;38.08;;;24.67;;
26574;SDS011;67165;50.256;10.978;2024-03-06T05:05:09;39.17;;;24.83;;
26574;SDS011;67165;50.256;10.978;2024-03-06T05:07:35;37.00;;;23.75;;
26574;SDS011;67165;50.256;10.978;2024-03-06T05:10:01;42.13;;;25.63;;
26574;SDS011;67165;50.256;10.978;2024-03-06T05:12:27;37.72;;;24.38;;
26574;SDS011;67165;50.256;10.978;2024-03-06T05:14:53;38.20;;;24.83;;
26574;SDS011;67165;50.256;10.978;2024-03-06T05:17:20;38.45;;;24.73;;
26574;SDS011;67165;50.256;10.978;2024-03-06T05:19:46;41.05;;;25.23;;
26574;SDS011;67165;50.256;10.978;2024-03-06T05:22:14;38.92;;;24.10;;
26574;SDS011;67165;50.256;10.978;2024-03-06T05:24:40;38.65;;;23.58;;
26574;SDS011;67165;50.256;10.978;2024-03-06T05:27:09;40.08;;;25.13;;
26574;SDS011;67165;50.256;10.978;2024-03-06T05:29:38;41.50;;;25.85;;
26574;SDS011;67165;50.256;10.978;2024-03-06T05:32:04;40.75;;;25.08;;
26574;SDS011;67165;50.256;10.978;2024-03-06T05:34:32;39.70;;;25.48;;
26574;SDS011;67165;50.256;10.978;2024-03-06T05:36:58;43.17;;;26.40;;
26574;SDS011;67165;50.256;10.978;2024-03-06T05:39:26;40.15;;;25.67;;
26574;SDS011;67165;50.256;10.978;2024-03-06T05:41:53;43.88;;;27.10;;
26574;SDS011;67165;50.256;10.978;2024-03-06T05:44:20;39.17;;;24.95;;
26574;SDS011;67165;50.256;10.978;2024-03-06T05:46:46;44.58;;;27.10;;
26574;SDS011;67165;50.256;10.978;2024-03-06T05:49:12;42.58;;;26.92;;
26574;SDS011;67165;50.256;10.978;2024-03-06T05:51:39;43.22;;;27.35;;
26574;SDS011;67165;50.256;10.978;2024-03-06T05:54:04;46.58;;;28.08;;
26574;SDS011;67165;50.256;10.978;2024-03-06T05:56:33;50.97;;;29.00;;
26574;SDS011;67165;50.256;10.978;2024-03-06T05:58:59;50.17;;;29.80;;
26574;SDS011;67165;50.256;10.978;2024-03-06T06:01:29;53.08;;;30.17;;
26574;SDS011;67165;50.256;10.978;2024-03-06T06:03:56;53.28;;;31.20;;
26574;SDS011;67165;50.256;10.978;2024-03-06T06:06:22;59.53;;;31.95;;
26574;SDS011;67165;50.256;10.978;2024-03-06T06:08:47;57.25;;;32.50;;
26574;SDS011;67165;50.256;10.978;2024-03-06T06:11:13;55.72;;;32.70;;
26574;SDS011;67165;50.256;10.978;2024-03-06T06:13:39;54.33;;;32.25;;
26574;SDS011;67165;50.256;10.978;2024-03-06T06:16:05;48.85;;;30.50;;
26574;SDS011;67165;50.256;10.978;2024-03-06T06:18:32;50.92;;;30.98;;
26574;SDS011;67165;50.256;10.978;2024-03-06T06:20:58;53.90;;;32.20;;
26574;SDS011;67165;50.256;10.978;2024-03-06T06:23:24;53.17;;;31.10;;
26574;SDS011;67165;50.256;10.978;2024-03-06T06:25:50;51.95;;;30.48;;
26574;SDS011;67165;50.256;10.978;2024-03-06T06:28:16;55.13;;;30.65;;
26574;SDS011;67165;50.256;10.978;2024-03-06T06:30:42;52.17;;;29.48;;
26574;SDS011;67165;50.256;10.978;2024-03-06T06:33:08;53.22;;;31.23;;
26574;SDS011;67165;50.256;10.978;2024-03-06T06:35:34;52.90;;;29.85;;
26574;SDS011;67165;50.256;10.978;2024-03-06T06:38:01;52.40;;;30.33;;
26574;SDS011;67165;50.256;10.978;2024-03-06T06:40:27;52.92;;;31.70;;
26574;SDS011;67165;50.256;10.978;2024-03-06T06:42:56;52.17;;;30.25;;
26574;SDS011;67165;50.256;10.978;2024-03-06T06:45:22;50.88;;;29.50;;
26574;SDS011;67165;50.256;10.978;2024-03-06T06:47:48;51.65;;;30.10;;
26574;SDS011;67165;50.256;10.978;2024-03-06T06:50:14;52.80;;;29.55;;
26574;SDS011;67165;50.256;10.978;2024-03-06T06:52:41;49.85;;;28.90;;
26574;SDS011;67165;50.256;10.978;2024-03-06T06:55:07;52.03;;;30.05;;
26574;SDS011;67165;50.256;10.978;2024-03-06T06:57:36;53.03;;;29.45;;
26574;SDS011;67165;50.256;10.978;2024-03-06T07:00:03;53.00;;;29.13;;
26574;SDS011;67165;50.256;10.978;2024-03-06T07:02:44;53.97;;;30.05;;
26574;SDS011;67165;50.256;10.978;2024-03-06T07:05:10;53.15;;;29.90;;
26574;SDS011;67165;50.256;10.978;2024-03-06T07:07:36;52.28;;;29.17;;
26574;SDS011;67165;50.256;10.978;2024-03-06T07:10:03;52.05;;;28.08;;
26574;SDS011;67165;50.256;10.978;2024-03-06T07:12:29;53.65;;;29.60;;
26574;SDS011;67165;50.256;10.978;2024-03-06T07:14:55;52.83;;;28.98;;
26574;SDS011;67165;50.256;10.978;2024-03-06T07:17:21;50.35;;;28.77;;
26574;SDS011;67165;50.256;10.978;2024-03-06T07:19:47;53.00;;;29.15;;
26574;SDS011;67165;50.256;10.978;2024-03-06T07:22:13;53.22;;;29.17;;
26574;SDS011;67165;50.256;10.978;2024-03-06T07:24:39;56.25;;;30.20;;
26574;SDS011;67165;50.256;10.978;2024-03-06T07:27:06;60.63;;;30.92;;
26574;SDS011;67165;50.256;10.978;2024-03-06T07:29:34;56.45;;;29.98;;
26574;SDS011;67165;50.256;10.978;2024-03-06T07:32:00;58.58;;;30.55;;
26574;SDS011;67165;50.256;10.978;2024-03-06T07:34:26;62.88;;;31.15;;
26574;SDS011;67165;50.256;10.978;2024-03-06T07:36:52;57.90;;;30.02;;
26574;SDS011;67165;50.256;10.978;2024-03-06T07:39:21;59.33;;;29.77;;
26574;SDS011;67165;50.256;10.978;2024-03-06T07:41:47;59.03;;;30.90;;
26574;SDS011;67165;50.256;10.978;2024-03-06T07:44:13;64.05;;;31.40;;
26574;SDS011;67165;50.256;10.978;2024-03-06T07:46:38;58.92;;;30.30;;
26574;SDS011;67165;50.256;10.978;2024-03-06T07:49:04;64.05;;;31.67;;
26574;SDS011;67165;50.256;10.978;2024-03-06T07:51:33;64.65;;;30.88;;
26574;SDS011;67165;50.256;10.978;2024-03-06T07:54:00;64.35;;;31.60;;
26574;SDS011;67165;50.256;10.978;2024-03-06T07:56:26;56.92;;;29.63;;
26574;SDS011;67165;50.256;10.978;2024-03-06T07:58:53;64.75;;;31.80;;
26574;SDS011;67165;50.256;10.978;2024-03-06T08:01:20;60.47;;;30.35;;
26574;SDS011;67165;50.256;10.978;2024-03-06T08:03:46;58.90;;;29.95;;
26574;SDS011;67165;50.256;10.978;2024-03-06T08:06:12;56.55;;;29.23;;
26574;SDS011;67165;50.256;10.978;2024-03-06T08:08:41;59.80;;;28.85;;
26574;SDS011;67165;50.256;10.978;2024-03-06T08:11:09;59.30;;;30.20;;
26574;SDS011;67165;50.256;10.978;2024-03-06T08:13:36;54.15;;;28.83;;
26574;SDS011;67165;50.256;10.978;2024-03-06T08:16:02;54.47;;;28.70;;
26574;SDS011;67165;50.256;10.978;2024-03-06T08:18:29;55.97;;;28.95;;
26574;SDS011;67165;50.256;10.978;2024-03-06T08:20:55;59.80;;;29.67;;
26574;SDS011;67165;50.256;10.978;2024-03-06T08:23:21;53.83;;;28.27;;
26574;SDS011;67165;50.256;10.978;2024-03-06T08:25:48;56.78;;;28.90;;
26574;SDS011;67165;50.256;10.978;2024-03-06T08:28:14;56.83;;;29.20;;
26574;SDS011;67165;50.256;10.978;2024-03-06T08:30:40;56.13;;;29.27;;
26574;SDS011;67165;50.256;10.978;2024-03-06T08:33:06;55.10;;;28.92;;
26574;SDS011;67165;50.256;10.978;2024-03-06T08:35:32;57.28;;;29.05;;
26574;SDS011;67165;50.256;10.978;2024-03-06T08:37:59;57.25;;;29.73;;
26574;SDS011;67165;50.256;10.978;2024-03-06T08:40:25;53.67;;;28.38;;
26574;SDS011;67165;50.256;10.978;2024-03-06T08:42:52;54.35;;;28.20;;
26574;SDS011;67165;50.256;10.978;2024-03-06T08:45:19;52.67;;;28.27;;
26574;SDS011;67165;50.256;10.978;2024-03-06T08:47:45;52.08;;;27.08;;
26574;SDS011;67165;50.256;10.978;2024-03-06T08:50:11;51.58;;;26.73;;
26574;SDS011;67165;50.256;10.978;2024-03-06T08:52:37;50.95;;;27.70;;
26574;SDS011;67165;50.256;10.978;2024-03-06T08:55:04;51.67;;;27.95;;
26574;SDS011;67165;50.256;10.978;2024-03-06T08:57:33;48.70;;;27.23;;
26574;SDS011;67165;50.256;10.978;2024-03-06T09:00:03;51.28;;;27.30;;
26574;SDS011;67165;50.256;10.978;2024-03-06T09:02:32;50.88;;;27.88;;
26574;SDS011;67165;50.256;10.978;2024-03-06T09:04:58;49.88;;;27.05;;
26574;SDS011;67165;50.256;10.978;2024-03-06T09:07:24;49.75;;;27.08;;
26574;SDS011;67165;50.256;10.978;2024-03-06T09:09:50;49.38;;;27.08;;
26574;SDS011;67165;50.256;10.978;2024-03-06T09:12:18;48.47;;;26.10;;
26574;SDS011;67165;50.256;10.978;2024-03-06T09:14:44;42.78;;;25.45;;
26574;SDS011;67165;50.256;10.978;2024-03-06T09:17:10;46.58;;;25.90;;
26574;SDS011;67165;50.256;10.978;2024-03-06T09:19:40;47.70;;;25.50;;
26574;SDS011;67165;50.256;10.978;2024-03-06T09:22:06;45.65;;;25.92;;
26574;SDS011;67165;50.256;10.978;2024-03-06T09:24:32;46.28;;;25.58;;
26574;SDS011;67165;50.256;10.978;2024-03-06T09:27:00;46.35;;;25.15;;
26574;SDS011;67165;50.256;10.978;2024-03-06T09:29:26;47.85;;;25.15;;
26574;SDS011;67165;50.256;10.978;2024-03-06T09:31:52;45.58;;;25.30;;
26574;SDS011;67165;50.256;10.978;2024-03-06T09:34:18;43.85;;;25.40;;
26574;SDS011;67165;50.256;10.978;2024-03-06T09:36:47;42.53;;;23.33;;
26574;SDS011;67165;50.256;10.978;2024-03-06T09:39:18;43.75;;;24.88;;
26574;SDS011;67165;50.256;10.978;2024-03-06T09:41:50;44.65;;;24.67;;
26574;SDS011;67165;50.256;10.978;2024-03-06T09:44:17;44.17;;;24.58;;
26574;SDS011;67165;50.256;10.978;2024-03-06T09:46:44;48.50;;;24.80;;
26574;SDS011;67165;50.256;10.978;2024-03-06T09:49:12;48.50;;;24.15;;
26574;SDS011;67165;50.256;10.978;2024-03-06T09:51:40;42.63;;;23.48;;
26574;SDS011;67165;50.256;10.978;2024-03-06T09:54:10;42.70;;;24.17;;
26574;SDS011;67165;50.256;10.978;2024-03-06T09:56:38;43.70;;;24.60;;
26574;SDS011;67165;50.256;10.978;2024-03-06T09:59:04;40.92;;;24.42;;
26574;SDS011;67165;50.256;10.978;2024-03-06T10:01:31;44.17;;;24.52;;
26574;SDS011;67165;50.256;10.978;2024-03-06T10:03:57;42.75;;;23.30;;
26574;SDS011;67165;50.256;10.978;2024-03-06T10:06:23;46.00;;;24.50;;
26574;SDS011;67165;50.256;10.978;2024-03-06T10:08:50;47.28;;;24.55;;
26574;SDS011;67165;50.256;10.978;2024-03-06T10:11:17;42.35;;;24.05;;
26574;SDS011;67165;50.256;10.978;2024-03-06T10:13:43;43.08;;;23.25;;
26574;SDS011;67165;50.256;10.978;2024-03-06T10:16:08;39.03;;;23.27;;
26574;SDS011;67165;50.256;10.978;2024-03-06T10:18:36;42.50;;;23.45;;
26574;SDS011;67165;50.256;10.978;2024-03-06T10:21:04;39.75;;;22.88;;
26574;SDS011;67165;50.256;10.978;2024-03-06T10:23:31;41.45;;;22.73;;
26574;SDS011;67165;50.256;10.978;2024-03-06T10:25:57;40.05;;;21.73;;
26574;SDS011;67165;50.256;10.978;2024-03-06T10:28:23;39.53;;;23.70;;
26574;SDS011;67165;50.256;10.978;2024-03-06T10:30:49;39.05;;;22.75;;
26574;SDS011;67165;50.256;10.978;2024-03-06T10:33:17;35.58;;;21.52;;
26574;SDS011;67165;50.256;10.978;2024-03-06T10:35:44;38.67;;;21.67;;
26574;SDS011;67165;50.256;10.978;2024-03-06T10:38:13;36.78;;;20.40;;
26574;SDS011;67165;50.256;10.978;2024-03-06T10:40:40;38.22;;;20.65;;
26574;SDS011;67165;50.256;10.978;2024-03-06T10:43:07;34.55;;;20.55;;
26574;SDS011;67165;50.256;10.978;2024-03-06T10:48:16;40.97;;;22.45;;
26574;SDS011;67165;50.256;10.978;2024-03-06T10:50:43;37.92;;;21.83;;
26574;SDS011;67165;50.256;10.978;2024-03-06T10:53:11;40.58;;;22.92;;
26574;SDS011;67165;50.256;10.978;2024-03-06T10:55:38;41.70;;;23.25;;
26574;SDS011;67165;50.256;10.978;2024-03-06T10:58:05;38.00;;;21.45;;
26574;SDS011;67165;50.256;10.978;2024-03-06T11:00:36;40.25;;;22.95;;
26574;SDS011;67165;50.256;10.978;2024-03-06T11:03:04;42.03;;;22.90;;
26574;SDS011;67165;50.256;10.978;2024-03-06T11:05:34;40.45;;;22.90;;
26574;SDS011;67165;50.256;10.978;2024-03-06T11:08:07;39.85;;;22.55;;
26574;SDS011;67165;50.256;10.978;2024-03-06T11:10:34;41.20;;;22.35;;
26574;SDS011;67165;50.256;10.978;2024-03-06T11:13:01;44.30;;;24.20;;
26574;SDS011;67165;50.256;10.978;2024-03-06T11:15:30;48.40;;;25.58;;
26574;SDS011;67165;50.256;10.978;2024-03-06T11:17:57;45.58;;;24.45;;
26574;SDS011;67165;50.256;10.978;2024-03-06T11:20:22;44.13;;;24.10;;
26574;SDS011;67165;50.256;10.978;2024-03-06T11:28:12;42.67;;;24.30;;
26574;SDS011;67165;50.256;10.978;2024-03-06T11:33:44;44.42;;;24.58;;
26574;SDS011;67165;50.256;10.978;2024-03-06T11:39:05;44.95;;;23.85;;
26574;SDS011;67165;50.256;10.978;2024-03-06T11:44:12;48.28;;;25.88;;
26574;SDS011;67165;50.256;10.978;2024-03-06T11:49:24;46.55;;;24.90;;
26574;SDS011;67165;50.256;10.978;2024-03-06T11:51:56;49.80;;;25.08;;
26574;SDS011;67165;50.256;10.978;2024-03-06T11:54:26;48.88;;;25.25;;
26574;SDS011;67165;50.256;10.978;2024-03-06T11:56:53;45.13;;;24.70;;
26574;SDS011;67165;50.256;10.978;2024-03-06T11:59:23;51.67;;;26.08;;
26574;SDS011;67165;50.256;10.978;2024-03-06T12:02:00;45.97;;;24.35;;
26574;SDS011;67165;50.256;10.978;2024-03-06T12:04:32;48.45;;;25.73;;
26574;SDS011;67165;50.256;10.978;2024-03-06T12:07:00;47.83;;;24.85;;
26574;SDS011;67165;50.256;10.978;2024-03-06T12:09:34;47.97;;;25.25;;
26574;SDS011;67165;50.256;10.978;2024-03-06T12:12:00;46.58;;;23.98;;
26574;SDS011;67165;50.256;10.978;2024-03-06T12:14:27;47.95;;;24.92;;
26574;SDS011;67165;50.256;10.978;2024-03-06T12:16:56;45.08;;;24.00;;
26574;SDS011;67165;50.256;10.978;2024-03-06T12:19:25;47.88;;;23.77;;
26574;SDS011;67165;50.256;10.978;2024-03-06T12:21:53;48.83;;;25.08;;
26574;SDS011;67165;50.256;10.978;2024-03-06T12:24:19;41.65;;;23.38;;
26574;SDS011;67165;50.256;10.978;2024-03-06T12:26:45;44.92;;;24.15;;
26574;SDS011;67165;50.256;10.978;2024-03-06T12:29:16;44.80;;;23.45;;
26574;SDS011;67165;50.256;10.978;2024-03-06T12:31:44;38.45;;;22.52;;
26574;SDS011;67165;50.256;10.978;2024-03-06T12:34:13;43.33;;;22.73;;
26574;SDS011;67165;50.256;10.978;2024-03-06T12:36:42;42.78;;;22.88;;
26574;SDS011;67165;50.256;10.978;2024-03-06T12:39:08;38.42;;;21.92;;
26574;SDS011;67165;50.256;10.978;2024-03-06T12:41:40;39.70;;;21.42;;
26574;SDS011;67165;50.256;10.978;2024-03-06T12:44:06;38.05;;;22.23;;
26574;SDS011;67165;50.256;10.978;2024-03-06T12:46:32;38.45;;;21.92;;
26574;SDS011;67165;50.256;10.978;2024-03-06T12:48:58;38.28;;;21.65;;
26574;SDS011;67165;50.256;10.978;2024-03-06T12:51:24;36.70;;;20.83;;
26574;SDS011;67165;50.256;10.978;2024-03-06T12:53:50;38.83;;;23.00;;
26574;SDS011;67165;50.256;10.978;2024-03-06T12:56:16;40.38;;;21.75;;
26574;SDS011;67165;50.256;10.978;2024-03-06T12:58:42;34.83;;;21.05;;
26574;SDS011;67165;50.256;10.978;2024-03-06T13:01:09;37.88;;;20.70;;
26574;SDS011;67165;50.256;10.978;2024-03-06T13:03:35;35.35;;;20.05;;
26574;SDS011;67165;50.256;10.978;2024-03-06T13:06:02;35.67;;;20.13;;
26574;SDS011;67165;50.256;10.978;2024-03-06T13:08:29;35.47;;;21.25;;
26574;SDS011;67165;50.256;10.978;2024-03-06T13:10:55;36.53;;;20.65;;
26574;SDS011;67165;50.256;10.978;2024-03-06T13:13:21;35.13;;;20.50;;
26574;SDS011;67165;50.256;10.978;2024-03-06T13:15:49;34.05;;;19.75;;
26574;SDS011;67165;50.256;10.978;2024-03-06T13:18:17;37.95;;;19.08;;
26574;SDS011;67165;50.256;10.978;2024-03-06T13:20:43;29.25;;;18.77;;
26574;SDS011;67165;50.256;10.978;2024-03-06T13:23:10;34.75;;;19.58;;
26574;SDS011;67165;50.256;10.978;2024-03-06T13:25:36;31.55;;;18.35;;
26574;SDS011;67165;50.256;10.978;2024-03-06T13:28:02;28.98;;;16.45;;
26574;SDS011;67165;50.256;10.978;2024-03-06T13:30:28;31.30;;;16.83;;
26574;SDS011;67165;50.256;10.978;2024-03-06T13:32:54;30.05;;;18.00;;
26574;SDS011;67165;50.256;10.978;2024-03-06T13:35:20;29.98;;;18.38;;
26574;SDS011;67165;50.256;10.978;2024-03-06T13:37:46;33.38;;;17.92;;
26574;SDS011;67165;50.256;10.978;2024-03-06T13:40:14;30.85;;;17.65;;
26574;SDS011;67165;50.256;10.978;2024-03-06T13:42:40;33.33;;;18.70;;
26574;SDS011;67165;50.256;10.978;2024-03-06T13:45:06;31.85;;;17.48;;
26574;SDS011;67165;50.256;10.978;2024-03-06T13:47:39;32.65;;;18.85;;
26574;SDS011;67165;50.256;10.978;2024-03-06T13:50:07;32.92;;;18.50;;
26574;SDS011;67165;50.256;10.978;2024-03-06T13:52:34;34.17;;;18.58;;
26574;SDS011;67165;50.256;10.978;2024-03-06T13:55:01;31.17;;;18.70;;
26574;SDS011;67165;50.256;10.978;2024-03-06T13:57:29;35.70;;;18.88;;
26574;SDS011;67165;50.256;10.978;2024-03-06T13:59:58;30.15;;;18.42;;
26574;SDS011;67165;50.256;10.978;2024-03-06T14:02:25;31.13;;;19.65;;
26574;SDS011;67165;50.256;10.978;2024-03-06T14:04:51;35.45;;;20.17;;
26574;SDS011;67165;50.256;10.978;2024-03-06T14:07:17;36.55;;;20.08;;
26574;SDS011;67165;50.256;10.978;2024-03-06T14:09:43;34.08;;;19.52;;
26574;SDS011;67165;50.256;10.978;2024-03-06T14:12:08;34.38;;;19.15;;
26574;SDS011;67165;50.256;10.978;2024-03-06T14:14:34;32.08;;;19.48;;
26574;SDS011;67165;50.256;10.978;2024-03-06T14:17:00;36.80;;;21.25;;
26574;SDS011;67165;50.256;10.978;2024-03-06T14:19:26;45.72;;;25.70;;
26574;SDS011;67165;50.256;10.978;2024-03-06T14:21:51;37.58;;;20.77;;
26574;SDS011;67165;50.256;10.978;2024-03-06T14:24:17;34.13;;;19.52;;
26574;SDS011;67165;50.256;10.978;2024-03-06T14:26:45;34.35;;;19.95;;